メインページ
METAR-TAF:

METAR-TAF

空港 :

アリススプリングス, オーストラリア

アリス・スプリングス空港

緯度: 23-48S, 経度: 133-53E, 海抜: 545m

現時点の気象観測

当レポートは11分前の16:00(UTC)に作成
南/南東の風 6kt
気温 31°C
湿度 33%
気圧 1008 hPa
視程10km以上

METAR: YBAS 231600Z AUTO 15006KT 9999 // NCD 31/13 Q1008

時間: 01:41 (16:11 UTC)

予報

当レポートは4時間43分前の11:28(UTC)に作成
予報は23日の 12時(UTC)から 24日の 12時(UTC)まで有効
南/南東の風 10kt
視程10km以上
1,500メートル以下は雲なし、積乱雲なし
23日の 2300時(UTC)から
南東の風 14kt
視程10km以上
1,500メートル以下は雲なし、積乱雲なし

TAF: YBAS 231128Z 2312/2412 16010KT CAVOK FM232300 14014KT CAVOK

4,000以上の空港の気象観測と天気予報(METAR報とTAF報)

利用可能な観測所は地図上に黄色い丸と赤い丸で示す。

丸の上にカーソルを重ねると観測所名を参照できる。

次にクリックすると気象観測と天気予報を参照できる。

マップの切り替え:黒色「×」印の緑ボタンをクリックして拡大、「-」印の緑ボタンをクリックして縮小、緑色の三角印をクリックして隣りの地図に切り替え


METAR-TAF: